createdAt,value
2019-01-21T00:00:06.602Z,981.45
2019-01-21T00:01:06.787Z,981.26
2019-01-21T00:02:06.647Z,981.40
2019-01-21T00:04:06.428Z,981.26
2019-01-21T00:04:11.633Z,981.43
2019-01-21T00:05:06.682Z,981.27
2019-01-21T00:07:06.274Z,981.21
2019-01-21T00:08:06.494Z,981.35
2019-01-21T00:09:06.626Z,981.38
2019-01-21T00:10:06.759Z,981.30
2019-01-21T00:11:06.573Z,981.33
2019-01-21T00:12:06.644Z,981.24
2019-01-21T00:13:06.586Z,981.27
2019-01-21T00:14:06.583Z,981.36
2019-01-21T00:15:06.642Z,981.19
2019-01-21T00:16:06.629Z,981.36
2019-01-21T00:17:06.711Z,981.30
2019-01-21T00:18:06.654Z,981.22
2019-01-21T00:19:06.640Z,981.22
2019-01-21T00:20:06.630Z,981.36
2019-01-21T00:21:06.595Z,981.28
2019-01-21T00:22:04.496Z,981.34
2019-01-21T00:23:06.634Z,981.34
2019-01-21T00:24:06.678Z,981.36
2019-01-21T00:25:06.590Z,981.34
2019-01-21T00:26:06.714Z,981.45
2019-01-21T00:27:06.628Z,981.26
2019-01-21T00:28:06.133Z,981.42
2019-01-21T00:29:10.441Z,981.40
2019-01-21T00:30:04.503Z,981.51
2019-01-21T00:31:06.606Z,981.40
2019-01-21T00:32:06.610Z,981.31
2019-01-21T00:33:06.654Z,981.32
2019-01-21T00:34:06.658Z,981.29
2019-01-21T00:35:06.682Z,981.37
2019-01-21T00:36:06.656Z,981.34
2019-01-21T00:37:06.643Z,981.29
2019-01-21T00:38:06.629Z,981.32
2019-01-21T00:39:06.667Z,981.46
2019-01-21T00:40:06.299Z,981.29
2019-01-21T00:41:06.597Z,981.38
2019-01-21T00:42:06.756Z,981.32
2019-01-21T00:44:06.383Z,981.19
2019-01-21T00:45:06.455Z,981.41
2019-01-21T00:46:04.519Z,981.33
2019-01-21T00:47:06.680Z,981.27
2019-01-21T00:48:06.657Z,981.25
2019-01-21T00:49:06.635Z,981.19
2019-01-21T00:50:04.504Z,981.22
2019-01-21T00:51:06.610Z,981.11
2019-01-21T00:54:06.689Z,981.17
2019-01-21T00:54:11.295Z,981.33
2019-01-21T00:55:06.674Z,981.22
2019-01-21T00:56:06.145Z,981.20
2019-01-21T00:57:06.582Z,981.25
2019-01-21T00:58:06.713Z,981.23
2019-01-21T00:59:06.613Z,981.26
2019-01-21T01:00:06.656Z,981.20
2019-01-21T01:01:06.657Z,981.28
2019-01-21T01:02:06.640Z,981.28
2019-01-21T01:03:06.665Z,981.26
2019-01-21T01:04:06.668Z,981.42
2019-01-21T01:06:06.673Z,981.29
2019-01-21T01:07:06.708Z,981.29
2019-01-21T01:08:04.528Z,981.26
2019-01-21T01:10:06.636Z,981.29
2019-01-21T01:11:06.648Z,981.29
2019-01-21T01:12:06.519Z,981.26
2019-01-21T01:13:06.114Z,981.26
2019-01-21T01:14:06.732Z,981.40
2019-01-21T01:15:06.687Z,981.42
2019-01-21T01:16:06.688Z,981.42
2019-01-21T01:17:06.678Z,981.34
2019-01-21T01:18:06.205Z,981.51
2019-01-21T01:19:06.660Z,981.51
2019-01-21T01:20:06.709Z,981.48
2019-01-21T01:21:06.673Z,981.42
2019-01-21T01:22:06.656Z,981.42
2019-01-21T01:23:06.744Z,981.45
2019-01-21T01:24:06.604Z,981.48
2019-01-21T01:25:06.678Z,981.53
2019-01-21T01:26:06.716Z,981.45
2019-01-21T01:27:06.728Z,981.50
2019-01-21T01:28:06.701Z,981.53
2019-01-21T01:29:06.117Z,981.50
2019-01-21T01:31:06.672Z,981.42
2019-01-21T01:31:11.778Z,981.42
2019-01-21T01:32:06.692Z,981.50
2019-01-21T01:33:06.206Z,981.42
2019-01-21T01:34:06.164Z,981.53
2019-01-21T01:35:06.538Z,981.47
2019-01-21T01:36:06.453Z,981.56
2019-01-21T01:37:06.713Z,981.45
2019-01-21T01:38:06.756Z,981.56
2019-01-21T01:39:06.693Z,981.60
2019-01-21T01:41:06.723Z,981.42
2019-01-21T01:42:06.735Z,981.36
2019-01-21T01:43:06.171Z,981.42
2019-01-21T01:44:06.661Z,981.47
2019-01-21T01:45:06.700Z,981.42
2019-01-21T01:46:06.766Z,981.44
2019-01-21T01:47:06.708Z,981.36
2019-01-21T01:48:06.674Z,981.39
2019-01-21T01:49:06.741Z,981.50
2019-01-21T01:50:06.760Z,981.31
2019-01-21T01:51:06.659Z,981.44
2019-01-21T01:52:06.745Z,981.36
2019-01-21T01:53:06.701Z,981.44
2019-01-21T01:54:06.733Z,981.47
2019-01-21T01:55:06.720Z,981.33
2019-01-21T01:56:06.440Z,981.39
2019-01-21T01:57:06.671Z,981.42
2019-01-21T01:58:06.760Z,981.47
2019-01-21T02:00:06.420Z,981.47
2019-01-21T02:01:06.188Z,981.53
2019-01-21T02:02:06.817Z,981.36
2019-01-21T02:03:04.573Z,981.33
2019-01-21T02:04:06.242Z,981.39
2019-01-21T02:05:06.724Z,981.36
2019-01-21T02:06:06.516Z,981.56
2019-01-21T02:07:06.745Z,981.53
2019-01-21T02:08:06.231Z,981.57
2019-01-21T02:10:06.112Z,981.50
2019-01-21T02:10:11.274Z,981.42
2019-01-21T02:11:06.443Z,981.34
2019-01-21T02:13:06.718Z,981.45
2019-01-21T02:14:06.783Z,981.60
2019-01-21T02:15:06.283Z,981.42
2019-01-21T02:16:06.822Z,981.50
2019-01-21T02:18:06.573Z,981.53
2019-01-21T02:18:11.324Z,981.45
2019-01-21T02:19:06.720Z,981.48
2019-01-21T02:20:06.212Z,981.42
2019-01-21T02:21:04.594Z,981.31
2019-01-21T02:22:06.712Z,981.39
2019-01-21T02:23:04.512Z,981.48
2019-01-21T02:24:06.717Z,981.42
2019-01-21T02:25:06.721Z,981.39
2019-01-21T02:26:06.813Z,981.42
2019-01-21T02:27:04.510Z,981.40
2019-01-21T02:28:04.508Z,981.51
2019-01-21T02:29:06.703Z,981.51
2019-01-21T02:30:06.706Z,981.48
2019-01-21T02:31:06.750Z,981.29
2019-01-21T02:32:04.527Z,981.37
2019-01-21T02:33:06.482Z,981.40
2019-01-21T02:34:07.021Z,981.43
2019-01-21T02:35:06.444Z,981.34
2019-01-21T02:37:06.745Z,981.32
2019-01-21T02:38:10.218Z,981.29
2019-01-21T02:39:06.741Z,981.34
2019-01-21T02:40:06.710Z,981.43
2019-01-21T02:41:06.842Z,981.29
2019-01-21T02:42:04.550Z,981.32
2019-01-21T02:43:06.661Z,981.24
2019-01-21T02:44:06.572Z,981.32
2019-01-21T02:45:06.704Z,981.21
2019-01-21T02:46:04.483Z,981.27
2019-01-21T02:47:06.569Z,981.24
2019-01-21T02:48:06.606Z,981.21
2019-01-21T02:52:06.255Z,981.29
2019-01-21T02:53:06.561Z,981.32
2019-01-21T02:54:04.625Z,981.21
2019-01-21T02:55:06.776Z,981.19
2019-01-21T02:56:04.523Z,981.19
2019-01-21T02:58:06.785Z,981.33
2019-01-21T02:59:06.706Z,981.27
2019-01-21T03:00:06.864Z,981.30
2019-01-21T03:01:06.754Z,981.38
2019-01-21T03:02:06.439Z,981.36
2019-01-21T03:03:06.769Z,981.47
2019-01-21T03:04:06.901Z,981.33
2019-01-21T03:05:06.239Z,981.27
2019-01-21T03:06:06.798Z,981.33
2019-01-21T03:07:06.800Z,981.33
2019-01-21T03:08:06.906Z,981.14
2019-01-21T03:09:06.171Z,981.17
2019-01-21T03:10:04.511Z,981.17
2019-01-21T03:11:04.619Z,981.28
2019-01-21T03:12:04.648Z,981.25
2019-01-21T03:13:06.789Z,981.17
2019-01-21T03:14:06.824Z,981.25
2019-01-21T03:15:06.739Z,981.36
2019-01-21T03:16:04.534Z,981.28
2019-01-21T03:17:07.101Z,981.28
2019-01-21T03:18:08.491Z,981.17
2019-01-21T03:19:06.652Z,981.14
2019-01-21T03:20:04.575Z,981.06
2019-01-21T03:21:06.752Z,981.20
2019-01-21T03:22:06.864Z,981.14
2019-01-21T03:24:06.482Z,981.09
2019-01-21T03:25:06.294Z,981.12
2019-01-21T03:26:04.581Z,981.15
2019-01-21T03:27:06.765Z,981.04
2019-01-21T03:28:06.864Z,981.12
2019-01-21T03:29:06.566Z,981.31
2019-01-21T03:30:06.726Z,981.04
2019-01-21T03:31:06.818Z,981.07
2019-01-21T03:32:06.879Z,980.93
2019-01-21T03:33:06.712Z,981.15
2019-01-21T03:34:06.475Z,981.07
2019-01-21T03:35:06.473Z,981.26
2019-01-21T03:36:06.207Z,981.21
2019-01-21T03:37:06.751Z,981.29
2019-01-21T03:38:06.837Z,981.21
2019-01-21T03:39:04.507Z,981.02
2019-01-21T03:40:06.846Z,981.26
2019-01-21T03:41:06.756Z,981.21
2019-01-21T03:42:06.300Z,981.26
2019-01-21T03:43:06.702Z,981.13
2019-01-21T03:46:06.827Z,981.16
2019-01-21T03:47:06.690Z,981.10
2019-01-21T03:48:06.799Z,981.05
2019-01-21T03:49:04.549Z,981.10
2019-01-21T03:50:06.726Z,981.13
2019-01-21T03:51:04.646Z,981.10
2019-01-21T03:52:06.660Z,981.05
2019-01-21T03:53:06.628Z,981.13
2019-01-21T03:54:06.545Z,981.13
2019-01-21T03:55:06.788Z,981.05
2019-01-21T03:56:04.654Z,981.10
2019-01-21T03:57:06.791Z,981.13
2019-01-21T03:58:06.512Z,981.24
2019-01-21T03:59:06.300Z,981.13
2019-01-21T04:00:06.443Z,981.19
2019-01-21T04:01:06.240Z,981.05
2019-01-21T04:02:06.647Z,981.13
2019-01-21T04:03:04.506Z,981.02
2019-01-21T04:04:06.815Z,981.13
2019-01-21T04:05:06.852Z,981.13
2019-01-21T04:06:09.530Z,980.97
2019-01-21T04:07:06.644Z,981.13
2019-01-21T04:08:06.533Z,981.08
2019-01-21T04:09:06.307Z,981.16
2019-01-21T04:10:06.841Z,981.22
2019-01-21T04:11:04.558Z,981.08
2019-01-21T04:12:06.826Z,981.19
2019-01-21T04:13:06.828Z,981.24
2019-01-21T04:14:06.774Z,981.16
2019-01-21T04:15:06.878Z,981.21
2019-01-21T04:16:06.334Z,981.08
2019-01-21T04:17:04.493Z,981.05
2019-01-21T04:18:06.685Z,981.08
2019-01-21T04:19:06.217Z,981.30
2019-01-21T04:20:06.573Z,981.13
2019-01-21T04:21:04.523Z,981.10
2019-01-21T04:22:06.796Z,980.97
2019-01-21T04:23:06.843Z,981.10
2019-01-21T04:24:06.443Z,981.08
2019-01-21T04:25:06.988Z,981.08
2019-01-21T04:26:06.516Z,981.13
2019-01-21T04:27:04.600Z,981.16
2019-01-21T04:28:06.293Z,981.05
2019-01-21T04:30:06.879Z,981.10
2019-01-21T04:31:06.862Z,981.13
2019-01-21T04:32:06.880Z,981.24
2019-01-21T04:33:06.512Z,981.19
2019-01-21T04:34:06.296Z,981.08
2019-01-21T04:36:11.671Z,981.13
2019-01-21T04:37:06.699Z,981.08
2019-01-21T04:38:06.886Z,981.30
2019-01-21T04:39:06.616Z,981.27
2019-01-21T04:40:06.513Z,981.13
2019-01-21T04:41:06.535Z,981.05
2019-01-21T04:42:04.545Z,981.08
2019-01-21T04:43:04.747Z,981.08
2019-01-21T04:44:06.899Z,981.11
2019-01-21T04:45:04.651Z,981.02
2019-01-21T04:46:06.910Z,981.05
2019-01-21T04:47:04.631Z,981.08
2019-01-21T04:48:06.887Z,981.13
2019-01-21T04:49:04.655Z,981.00
2019-01-21T04:50:07.064Z,981.00
2019-01-21T04:51:10.377Z,981.11
2019-01-21T04:52:06.711Z,981.08
2019-01-21T04:53:04.601Z,981.00
2019-01-21T04:55:06.898Z,981.08
2019-01-21T04:56:06.589Z,981.00
2019-01-21T04:57:06.874Z,981.02
2019-01-21T04:58:06.363Z,981.08
2019-01-21T04:59:04.642Z,981.13
2019-01-21T05:00:06.702Z,981.19
2019-01-21T05:01:04.742Z,981.05
2019-01-21T05:02:06.885Z,981.05
2019-01-21T05:03:04.572Z,981.00
2019-01-21T05:04:06.892Z,981.00
2019-01-21T05:05:04.728Z,981.11
2019-01-21T05:06:04.513Z,981.11
2019-01-21T05:07:07.218Z,981.03
2019-01-21T05:08:06.870Z,981.16
2019-01-21T05:09:04.554Z,981.08
2019-01-21T05:10:04.679Z,981.03
2019-01-21T05:11:06.950Z,981.14
2019-01-21T05:12:04.739Z,981.19
2019-01-21T05:13:06.898Z,981.30
2019-01-21T05:14:04.559Z,981.27
2019-01-21T05:15:06.735Z,981.19
2019-01-21T05:16:04.672Z,981.16
2019-01-21T05:17:06.906Z,981.05
2019-01-21T05:18:04.547Z,981.22
2019-01-21T05:19:06.894Z,981.25
2019-01-21T05:20:06.398Z,981.16
2019-01-21T05:21:04.547Z,981.14
2019-01-21T05:22:06.873Z,981.11
2019-01-21T05:23:04.766Z,981.22
2019-01-21T05:24:06.364Z,981.11
2019-01-21T05:25:06.582Z,981.16
2019-01-21T05:26:04.753Z,981.19
2019-01-21T05:27:06.894Z,981.33
2019-01-21T05:28:04.607Z,981.19
2019-01-21T05:29:04.511Z,981.27
2019-01-21T05:30:06.604Z,981.11
2019-01-21T05:31:04.728Z,981.19
2019-01-21T05:32:06.975Z,981.14
2019-01-21T05:33:06.633Z,981.05
2019-01-21T05:34:06.674Z,981.08
2019-01-21T05:35:04.690Z,981.08
2019-01-21T05:36:06.898Z,981.16
2019-01-21T05:37:04.614Z,980.94
2019-01-21T05:38:06.960Z,981.22
2019-01-21T05:39:06.297Z,981.11
2019-01-21T05:40:06.940Z,981.08
2019-01-21T05:41:06.922Z,981.05
2019-01-21T05:42:09.767Z,981.16
2019-01-21T05:43:06.755Z,981.00
2019-01-21T05:44:06.722Z,981.19
2019-01-21T05:45:06.415Z,981.14
2019-01-21T05:46:06.881Z,981.16
2019-01-21T05:47:06.425Z,981.11
2019-01-21T05:48:04.629Z,981.16
2019-01-21T05:49:04.683Z,981.17
2019-01-21T05:50:06.547Z,981.17
2019-01-21T05:51:04.747Z,981.11
2019-01-21T05:52:06.908Z,981.00
2019-01-21T05:53:04.684Z,981.00
2019-01-21T05:54:07.012Z,981.25
2019-01-21T05:55:04.663Z,981.17
2019-01-21T05:56:06.401Z,981.09
2019-01-21T05:57:04.552Z,981.17
2019-01-21T05:58:04.663Z,981.25
2019-01-21T05:59:06.711Z,981.06
2019-01-21T06:00:04.655Z,981.17
2019-01-21T06:01:06.902Z,981.17
2019-01-21T06:02:04.636Z,981.17
2019-01-21T06:03:04.786Z,981.06
2019-01-21T06:04:04.784Z,981.12
2019-01-21T06:05:06.422Z,981.31
2019-01-21T06:06:04.749Z,981.20
2019-01-21T06:07:06.947Z,981.31
2019-01-21T06:08:04.638Z,981.23
2019-01-21T06:09:06.686Z,981.28
2019-01-21T06:10:04.725Z,981.39
2019-01-21T06:11:06.931Z,981.14
2019-01-21T06:12:04.823Z,981.28
2019-01-21T06:13:06.418Z,981.39
2019-01-21T06:15:04.540Z,981.42
2019-01-21T06:16:06.973Z,981.47
2019-01-21T06:17:06.608Z,981.39
2019-01-21T06:18:06.711Z,981.50
2019-01-21T06:19:06.973Z,981.28
2019-01-21T06:20:04.636Z,981.28
2019-01-21T06:21:04.806Z,981.34
2019-01-21T06:22:07.020Z,981.34
2019-01-21T06:23:04.675Z,981.37
2019-01-21T06:24:06.806Z,981.42
2019-01-21T06:25:04.768Z,981.53
2019-01-21T06:26:04.755Z,981.42
2019-01-21T06:27:06.954Z,981.53
2019-01-21T06:28:04.565Z,981.23
2019-01-21T06:29:06.475Z,981.48
2019-01-21T06:30:06.654Z,981.48
2019-01-21T06:31:04.772Z,981.43
2019-01-21T06:32:06.748Z,981.56
2019-01-21T06:33:04.844Z,981.51
2019-01-21T06:34:06.997Z,981.61
2019-01-21T06:35:04.614Z,981.37
2019-01-21T06:36:04.548Z,981.58
2019-01-21T06:37:04.741Z,981.56
2019-01-21T06:38:06.978Z,981.48
2019-01-21T06:39:04.606Z,981.43
2019-01-21T06:40:06.856Z,981.51
2019-01-21T06:41:06.836Z,981.46
2019-01-21T06:42:04.819Z,981.35
2019-01-21T06:43:04.491Z,981.38
2019-01-21T06:44:06.780Z,981.49
2019-01-21T06:45:06.955Z,981.32
2019-01-21T06:46:04.746Z,981.43
2019-01-21T06:47:04.543Z,981.38
2019-01-21T06:48:06.663Z,981.44
2019-01-21T06:49:06.682Z,981.35
2019-01-21T06:50:04.593Z,981.56
2019-01-21T06:51:06.947Z,981.46
2019-01-21T06:52:06.995Z,981.55
2019-01-21T06:53:04.532Z,981.62
2019-01-21T06:54:06.420Z,981.41
2019-01-21T06:55:09.835Z,981.55
2019-01-21T06:56:06.839Z,981.55
2019-01-21T06:57:04.673Z,981.49
2019-01-21T06:58:04.843Z,981.57
2019-01-21T06:59:06.661Z,981.55
2019-01-21T07:00:06.724Z,981.55
2019-01-21T07:01:06.414Z,981.55
2019-01-21T07:02:04.741Z,981.57
2019-01-21T07:03:04.585Z,981.59
2019-01-21T07:04:06.724Z,981.62
2019-01-21T07:05:06.666Z,981.44
2019-01-21T07:06:06.841Z,981.62
2019-01-21T07:07:07.052Z,981.57
2019-01-21T07:08:06.528Z,981.55
2019-01-21T07:09:04.743Z,981.52
2019-01-21T07:10:04.723Z,981.59
2019-01-21T07:11:07.376Z,981.68
2019-01-21T07:12:06.569Z,981.62
2019-01-21T07:13:07.049Z,981.57
2019-01-21T07:14:06.816Z,981.60
2019-01-21T07:15:04.903Z,981.33
2019-01-21T07:16:04.885Z,981.47
2019-01-21T07:17:04.792Z,981.63
2019-01-21T07:18:07.123Z,981.44
2019-01-21T07:19:11.471Z,981.57
2019-01-21T07:20:06.939Z,981.55
2019-01-21T07:21:06.512Z,981.55
2019-01-21T07:22:07.059Z,981.47
2019-01-21T07:23:06.570Z,981.68
2019-01-21T07:24:06.576Z,981.42
2019-01-21T07:25:06.454Z,981.57
2019-01-21T07:26:04.749Z,981.56
2019-01-21T07:27:04.718Z,981.56
2019-01-21T07:28:06.431Z,981.60
2019-01-21T07:29:09.842Z,981.65
2019-01-21T07:30:06.890Z,981.63
2019-01-21T07:31:06.552Z,981.63
2019-01-21T07:32:06.573Z,981.50
2019-01-21T07:33:06.463Z,981.53
2019-01-21T07:34:06.587Z,981.53
2019-01-21T07:35:04.868Z,981.53
2019-01-21T07:36:06.603Z,981.53
2019-01-21T07:37:04.836Z,981.53
2019-01-21T07:38:04.877Z,981.55
2019-01-21T07:40:06.529Z,981.47
2019-01-21T07:40:11.699Z,981.71
2019-01-21T07:41:06.826Z,981.47
2019-01-21T07:42:06.871Z,981.57
2019-01-21T07:43:04.909Z,981.60
2019-01-21T07:44:06.442Z,981.65
2019-01-21T07:45:06.610Z,981.53
2019-01-21T07:46:06.535Z,981.71
2019-01-21T07:47:06.626Z,981.57
2019-01-21T07:48:06.904Z,981.65
2019-01-21T07:49:10.061Z,981.60
2019-01-21T07:50:04.627Z,981.68
2019-01-21T07:51:07.158Z,981.84
2019-01-21T07:52:06.659Z,981.62
2019-01-21T07:53:06.814Z,981.73
2019-01-21T07:54:04.814Z,981.70
2019-01-21T07:55:07.112Z,981.73
2019-01-21T07:56:04.805Z,981.59
2019-01-21T07:57:06.833Z,981.73
2019-01-21T07:58:04.752Z,981.70
2019-01-21T07:59:06.941Z,981.65
2019-01-21T08:01:04.769Z,981.92
2019-01-21T08:02:04.669Z,981.78
2019-01-21T08:03:06.562Z,981.84
2019-01-21T08:04:04.736Z,981.78
2019-01-21T08:05:06.910Z,981.78
2019-01-21T08:06:04.900Z,981.86
2019-01-21T08:07:04.513Z,981.73
2019-01-21T08:09:07.113Z,981.67
2019-01-21T08:10:04.794Z,981.67
2019-01-21T08:11:06.898Z,981.67
2019-01-21T08:12:04.849Z,981.70
2019-01-21T08:13:04.645Z,981.64
2019-01-21T08:14:06.940Z,981.64
2019-01-21T08:15:07.116Z,981.67
2019-01-21T08:16:04.499Z,981.72
2019-01-21T08:17:06.776Z,981.69
2019-01-21T08:18:04.699Z,981.61
2019-01-21T08:19:06.865Z,981.77
2019-01-21T08:20:04.837Z,981.77
2019-01-21T08:21:06.951Z,981.69
2019-01-21T08:22:06.832Z,981.74
2019-01-21T08:23:06.497Z,981.66
2019-01-21T08:24:04.902Z,981.85
2019-01-21T08:25:04.712Z,981.69
2019-01-21T08:26:07.123Z,981.82
2019-01-21T08:27:06.899Z,981.71
2019-01-21T08:28:06.622Z,981.74
2019-01-21T08:29:06.639Z,981.77
2019-01-21T08:30:06.924Z,981.79
2019-01-21T08:31:04.680Z,981.90
2019-01-21T08:32:04.873Z,981.85
2019-01-21T08:33:06.878Z,981.65
2019-01-21T08:34:06.552Z,981.60
2019-01-21T08:35:04.737Z,981.84
2019-01-21T08:36:04.593Z,981.70
2019-01-21T08:37:06.977Z,981.73
2019-01-21T08:38:06.652Z,981.73
2019-01-21T08:39:06.611Z,981.84
2019-01-21T08:40:06.638Z,981.76
2019-01-21T08:41:06.640Z,981.97
2019-01-21T08:42:04.868Z,981.78
2019-01-21T08:43:04.803Z,981.86
2019-01-21T08:44:07.108Z,981.83
2019-01-21T08:45:06.621Z,981.89
2019-01-21T08:46:06.716Z,981.72
2019-01-21T08:47:06.614Z,981.75
2019-01-21T08:48:06.924Z,981.67
2019-01-21T08:49:06.619Z,981.85
2019-01-21T08:50:06.858Z,981.80
2019-01-21T08:51:10.007Z,981.80
2019-01-21T08:52:07.323Z,981.85
2019-01-21T08:53:04.689Z,981.77
2019-01-21T08:54:07.257Z,981.68
2019-01-21T08:55:06.921Z,981.96
2019-01-21T08:56:06.560Z,981.82
2019-01-21T08:57:06.951Z,981.82
2019-01-21T08:58:06.730Z,981.87
2019-01-21T08:59:04.915Z,981.92
2019-01-21T09:00:04.631Z,981.87
2019-01-21T09:01:07.319Z,982.06
2019-01-21T09:02:06.588Z,981.95
2019-01-21T09:03:06.660Z,981.86
2019-01-21T09:04:06.550Z,981.92
2019-01-21T09:05:06.537Z,982.00
2019-01-21T09:06:06.698Z,981.78
2019-01-21T09:07:06.570Z,981.91
2019-01-21T09:08:04.795Z,981.83
2019-01-21T09:09:07.184Z,981.86
2019-01-21T09:10:06.845Z,982.02
2019-01-21T09:11:04.933Z,981.99
2019-01-21T09:12:07.230Z,981.91
2019-01-21T09:13:06.660Z,982.07
2019-01-21T09:14:06.922Z,981.91
2019-01-21T09:15:06.656Z,981.96
2019-01-21T09:16:04.986Z,981.93
2019-01-21T09:17:07.351Z,981.85
2019-01-21T09:18:06.561Z,981.99
2019-01-21T09:19:04.838Z,982.01
2019-01-21T09:20:11.014Z,981.87
2019-01-21T09:21:04.624Z,981.98
2019-01-21T09:22:04.990Z,982.06
2019-01-21T09:23:04.540Z,982.06
2019-01-21T09:24:06.863Z,982.17
2019-01-21T09:25:04.706Z,982.09
2019-01-21T09:26:06.863Z,982.00
2019-01-21T09:27:04.933Z,982.22
2019-01-21T09:28:06.981Z,982.00
2019-01-21T09:29:04.566Z,982.11
2019-01-21T09:30:06.634Z,982.00
2019-01-21T09:31:04.753Z,982.16
2019-01-21T09:32:06.979Z,982.00
2019-01-21T09:33:04.465Z,981.94
2019-01-21T09:34:06.772Z,982.00
2019-01-21T09:35:06.954Z,981.97
2019-01-21T09:36:04.735Z,982.07
2019-01-21T09:37:04.535Z,982.05
2019-01-21T09:38:06.650Z,981.99
2019-01-21T09:39:04.822Z,982.04
2019-01-21T09:40:06.996Z,982.10
2019-01-21T09:41:04.817Z,981.99
2019-01-21T09:42:06.984Z,982.01
2019-01-21T09:43:04.860Z,982.07
2019-01-21T09:44:04.668Z,981.96
2019-01-21T09:45:06.952Z,982.01
2019-01-21T09:46:04.729Z,982.06
2019-01-21T09:47:04.490Z,981.98
2019-01-21T09:48:04.647Z,982.03
2019-01-21T09:49:06.695Z,982.20
2019-01-21T09:50:04.730Z,981.98
2019-01-21T09:51:07.023Z,981.98
2019-01-21T09:52:06.840Z,982.03
2019-01-21T09:53:04.836Z,982.08
2019-01-21T09:54:06.850Z,981.97
2019-01-21T09:55:04.666Z,982.08
2019-01-21T09:56:06.708Z,982.02
2019-01-21T09:57:04.715Z,982.02
2019-01-21T09:58:06.666Z,981.99
2019-01-21T09:59:06.634Z,982.02
2019-01-21T10:00:04.753Z,982.02
2019-01-21T10:01:04.570Z,981.99
2019-01-21T10:02:07.044Z,981.96
2019-01-21T10:03:06.571Z,981.99
2019-01-21T10:04:04.758Z,982.02
2019-01-21T10:05:06.843Z,982.10
2019-01-21T10:06:10.502Z,981.93
2019-01-21T10:07:04.845Z,981.93
2019-01-21T10:09:04.643Z,981.96
2019-01-21T10:10:06.866Z,981.98
2019-01-21T10:11:07.029Z,981.81
2019-01-21T10:12:04.893Z,981.95
2019-01-21T10:13:06.918Z,981.84
2019-01-21T10:14:04.987Z,981.84
2019-01-21T10:15:04.674Z,981.78
2019-01-21T10:16:06.836Z,981.92
2019-01-21T10:17:04.771Z,981.78
2019-01-21T10:18:06.813Z,981.92
2019-01-21T10:19:04.793Z,981.78
2019-01-21T10:20:07.060Z,981.78
2019-01-21T10:21:04.858Z,981.86
2019-01-21T10:22:06.849Z,981.80
2019-01-21T10:23:06.907Z,981.69
2019-01-21T10:24:04.556Z,981.75
2019-01-21T10:25:06.594Z,981.80
2019-01-21T10:26:04.836Z,981.66
2019-01-21T10:27:06.929Z,981.85
2019-01-21T10:28:04.507Z,981.74
2019-01-21T10:29:06.606Z,981.72
2019-01-21T10:30:04.747Z,981.80
2019-01-21T10:31:06.982Z,981.77
2019-01-21T10:32:04.847Z,981.77
2019-01-21T10:33:04.507Z,981.68
2019-01-21T10:34:06.657Z,981.77
2019-01-21T10:35:04.898Z,981.65
2019-01-21T10:36:07.023Z,981.68
2019-01-21T10:37:04.817Z,981.79
2019-01-21T10:38:07.060Z,981.76
2019-01-21T10:39:04.842Z,981.76
2019-01-21T10:40:08.424Z,981.62
2019-01-21T10:41:06.671Z,981.68
2019-01-21T10:42:05.023Z,981.81
2019-01-21T10:43:04.544Z,981.68
2019-01-21T10:44:06.614Z,981.62
2019-01-21T10:45:06.883Z,981.78
2019-01-21T10:46:07.015Z,981.70
2019-01-21T10:47:04.840Z,981.62
2019-01-21T10:48:07.126Z,981.78
2019-01-21T10:49:10.067Z,981.64
2019-01-21T10:50:04.634Z,981.67
2019-01-21T10:51:04.956Z,981.70
2019-01-21T10:52:06.668Z,981.58
2019-01-21T10:53:04.908Z,981.56
2019-01-21T10:54:04.615Z,981.56
2019-01-21T10:55:07.030Z,981.56
2019-01-21T10:56:05.002Z,981.58
2019-01-21T10:57:06.868Z,981.40
2019-01-21T10:58:06.840Z,981.54
2019-01-21T10:59:04.830Z,981.53
2019-01-21T11:00:04.608Z,981.40
2019-01-21T11:01:06.687Z,981.42
2019-01-21T11:02:05.011Z,981.48
2019-01-21T11:03:06.928Z,981.66
2019-01-21T11:04:04.882Z,981.50
2019-01-21T11:05:04.632Z,981.53
2019-01-21T11:06:06.903Z,981.50
2019-01-21T11:07:04.691Z,981.50
2019-01-21T11:08:07.912Z,981.50
2019-01-21T11:09:04.980Z,981.44
2019-01-21T11:10:06.925Z,981.42
2019-01-21T11:11:05.037Z,981.50
2019-01-21T11:12:04.758Z,981.44
2019-01-21T11:13:07.066Z,981.50
2019-01-21T11:14:06.816Z,981.55
2019-01-21T11:15:05.002Z,981.60
2019-01-21T11:16:06.626Z,981.36
2019-01-21T11:17:05.088Z,981.49
2019-01-21T11:18:05.063Z,981.30
2019-01-21T11:19:04.924Z,981.38
2019-01-21T11:20:07.045Z,981.52
2019-01-21T11:21:06.638Z,981.44
2019-01-21T11:22:06.648Z,981.35
2019-01-21T11:23:06.297Z,981.33
2019-01-21T11:24:04.726Z,981.44
2019-01-21T11:25:04.909Z,981.30
2019-01-21T11:26:04.734Z,981.21
2019-01-21T11:27:05.046Z,981.41
2019-01-21T11:28:04.832Z,981.43
2019-01-21T11:29:10.604Z,981.35
2019-01-21T11:30:05.109Z,981.32
2019-01-21T11:31:07.076Z,981.38
2019-01-21T11:32:05.112Z,981.32
2019-01-21T11:33:06.653Z,981.32
2019-01-21T11:34:05.076Z,981.46
2019-01-21T11:35:04.731Z,981.32
2019-01-21T11:36:07.046Z,981.46
2019-01-21T11:37:05.036Z,981.40
2019-01-21T11:38:04.833Z,981.40
2019-01-21T11:39:07.121Z,981.32
2019-01-21T11:40:07.666Z,981.21
2019-01-21T11:41:04.760Z,981.23
2019-01-21T11:42:06.906Z,981.29
2019-01-21T11:43:04.955Z,981.29
2019-01-21T11:44:04.530Z,981.18
2019-01-21T11:45:05.125Z,981.12
2019-01-21T11:46:04.652Z,981.29
2019-01-21T11:47:04.484Z,981.23
2019-01-21T11:48:04.708Z,981.15
2019-01-21T11:49:06.919Z,981.31
2019-01-21T11:50:10.888Z,981.20
2019-01-21T11:51:04.595Z,981.15
2019-01-21T11:52:04.549Z,981.23
2019-01-21T11:53:06.878Z,981.06
2019-01-21T11:54:05.009Z,981.09
2019-01-21T11:55:07.120Z,981.12
2019-01-21T11:56:04.962Z,981.20
2019-01-21T11:57:10.383Z,981.09
2019-01-21T11:58:04.817Z,981.23
2019-01-21T11:59:06.950Z,981.17
2019-01-21T12:00:04.910Z,981.06
2019-01-21T12:01:07.031Z,980.98
2019-01-21T12:02:07.001Z,981.03
2019-01-21T12:03:04.969Z,981.14
2019-01-21T12:04:06.710Z,980.86
2019-01-21T12:05:04.816Z,981.03
2019-01-21T12:06:04.506Z,980.83
2019-01-21T12:07:04.585Z,980.92
2019-01-21T12:08:04.557Z,980.92
2019-01-21T12:09:06.951Z,980.86
2019-01-21T12:10:04.941Z,980.89
2019-01-21T12:11:05.995Z,980.86
2019-01-21T12:12:06.785Z,980.80
2019-01-21T12:13:04.977Z,980.64
2019-01-21T12:14:04.690Z,980.72
2019-01-21T12:15:07.025Z,980.75
2019-01-21T12:16:04.915Z,980.77
2019-01-21T12:17:07.023Z,980.83
2019-01-21T12:18:05.089Z,980.88
2019-01-21T12:19:04.499Z,980.74
2019-01-21T12:20:04.685Z,980.74
2019-01-21T12:21:06.927Z,980.77
2019-01-21T12:22:04.971Z,980.63
2019-01-21T12:23:06.987Z,980.65
2019-01-21T12:24:04.947Z,980.65
2019-01-21T12:25:04.570Z,980.60
2019-01-21T12:26:04.498Z,980.71
2019-01-21T12:27:06.962Z,980.60
2019-01-21T12:28:04.921Z,980.73
2019-01-21T12:29:09.881Z,980.68
2019-01-21T12:30:06.931Z,980.59
2019-01-21T12:31:04.844Z,980.54
2019-01-21T12:32:07.039Z,980.67
2019-01-21T12:33:04.588Z,980.67
2019-01-21T12:34:06.665Z,980.48
2019-01-21T12:35:04.540Z,980.56
2019-01-21T12:36:06.930Z,980.53
2019-01-21T12:37:04.926Z,980.42
2019-01-21T12:38:04.526Z,980.56
2019-01-21T12:39:06.793Z,980.45
2019-01-21T12:40:06.793Z,980.36
2019-01-21T12:41:04.857Z,980.45
2019-01-21T12:42:06.968Z,980.42
2019-01-21T12:43:04.874Z,980.31
2019-01-21T12:44:04.677Z,980.36
2019-01-21T12:45:04.636Z,980.36
2019-01-21T12:46:04.754Z,980.25
2019-01-21T12:47:06.800Z,980.41
2019-01-21T12:48:04.926Z,980.27
2019-01-21T12:49:04.473Z,980.33
2019-01-21T12:50:06.814Z,980.33
2019-01-21T12:51:04.941Z,980.30